Reedsburg, Wisconsin
Current Conditions -  °F | °C
As of 9:15 PM on Monday 20 Oct 2014 (Local Time) from KC35 Reporting Station
Overcast Overcast  
Wind Chill: 51°   Ceiling: 4800
Heat Index: 51°   Visibility: 10mi
Dew Point: 40°   Wind: 6mph
Humidity: 65%   Direction: 20°NNE
Pressure: 30.03"   Gusts: NA
Location:  43.53°N, 90°W
Report Text: KC35 210215Z AUTO 02005KT 10SM OVC048 11/04 A3003 RMK AO2 T01070044
Loading
Personal Weather Stations






























Interactive Weather Map
Tropical Storm Tracking
New forecast layout! Learn more

10-Day Weather Forecast

Advertisements
Track Severe Weather on mobile